createdAt,value
2022-11-20T00:01:24.859Z,5.11
2022-11-20T00:03:54.201Z,5.13
2022-11-20T00:06:22.512Z,5.23
2022-11-20T00:08:50.153Z,5.38
2022-11-20T00:11:20.067Z,6.34
2022-11-20T00:13:49.210Z,6.42
2022-11-20T00:16:19.073Z,4.84
2022-11-20T00:18:47.257Z,5.58
2022-11-20T00:21:22.705Z,6.07
2022-11-20T00:23:52.509Z,6.24
2022-11-20T00:26:21.971Z,6.03
2022-11-20T00:28:52.153Z,5.88
2022-11-20T00:31:19.944Z,5.63
2022-11-20T00:33:47.605Z,5.45
2022-11-20T00:36:17.946Z,5.58
2022-11-20T00:38:45.800Z,4.77
2022-11-20T00:41:16.126Z,4.38
2022-11-20T00:43:43.978Z,4.19
2022-11-20T00:46:16.570Z,5.28
2022-11-20T00:48:45.122Z,5.07
2022-11-20T00:51:14.363Z,5.20
2022-11-20T00:53:42.008Z,5.41
2022-11-20T00:56:16.167Z,5.25
2022-11-20T00:58:45.419Z,5.29
2022-11-20T01:01:15.306Z,5.03
2022-11-20T01:03:46.559Z,4.75
2022-11-20T01:06:17.722Z,4.90
2022-11-20T01:08:45.977Z,5.07
2022-11-20T01:11:19.865Z,5.03
2022-11-20T01:13:49.202Z,5.69
2022-11-20T01:16:22.890Z,6.16
2022-11-20T01:18:52.731Z,6.23
2022-11-20T01:21:23.042Z,6.27
2022-11-20T01:23:51.196Z,6.22
2022-11-20T01:26:24.652Z,6.02
2022-11-20T01:28:52.344Z,5.96
2022-11-20T01:31:20.752Z,5.31
2022-11-20T01:33:50.798Z,5.10
2022-11-20T01:36:19.590Z,5.45
2022-11-20T01:38:47.261Z,5.10
2022-11-20T01:41:36.120Z,4.46
2022-11-20T01:44:04.601Z,3.77
2022-11-20T01:46:33.584Z,4.75
2022-11-20T01:49:04.767Z,5.52
2022-11-20T01:52:13.881Z,5.62
2022-11-20T01:54:50.507Z,5.89
2022-11-20T01:57:19.171Z,5.00
2022-11-20T01:59:52.745Z,5.14
2022-11-20T02:02:21.771Z,5.53
2022-11-20T02:04:50.692Z,5.37
2022-11-20T02:07:18.630Z,4.83
2022-11-20T02:09:46.242Z,4.42
2022-11-20T02:12:33.988Z,4.30
2022-11-20T02:15:01.524Z,3.37
2022-11-20T02:17:29.198Z,3.49
2022-11-20T02:19:56.722Z,3.09
2022-11-20T02:22:32.523Z,3.02
2022-11-20T02:25:07.299Z,2.99
2022-11-20T02:27:34.828Z,2.86
2022-11-20T02:30:08.598Z,2.99
2022-11-20T02:32:37.629Z,3.32
2022-11-20T02:35:31.466Z,3.23
2022-11-20T02:38:03.283Z,3.10
2022-11-20T02:40:30.900Z,2.90
2022-11-20T02:42:58.580Z,2.90
2022-11-20T02:45:26.242Z,3.01
2022-11-20T02:47:53.910Z,3.00
2022-11-20T02:50:21.283Z,3.05
2022-11-20T02:52:48.679Z,3.12
2022-11-20T02:55:16.745Z,2.99
2022-11-20T02:57:44.331Z,2.77
2022-11-20T03:00:12.481Z,2.70
2022-11-20T03:02:40.124Z,2.86
2022-11-20T03:05:07.639Z,3.32
2022-11-20T03:07:35.043Z,3.88
2022-11-20T03:10:02.738Z,4.65
2022-11-20T03:12:30.279Z,4.99
2022-11-20T03:14:57.628Z,5.06
2022-11-20T03:17:25.239Z,4.91
2022-11-20T03:19:52.538Z,5.31
2022-11-20T03:22:19.893Z,5.21
2022-11-20T03:24:47.468Z,5.56
2022-11-20T03:27:14.783Z,5.11
2022-11-20T03:29:42.136Z,5.25
2022-11-20T03:32:09.691Z,5.39
2022-11-20T03:34:37.242Z,5.82
2022-11-20T03:37:04.559Z,6.13
2022-11-20T03:39:32.117Z,6.67
2022-11-20T03:41:59.457Z,6.68
2022-11-20T03:44:26.764Z,6.62
2022-11-20T03:46:54.604Z,6.73
2022-11-20T03:49:22.223Z,6.78
2022-11-20T03:51:49.700Z,6.83
2022-11-20T03:54:18.574Z,6.59
2022-11-20T03:56:45.884Z,4.46
2022-11-20T03:59:13.272Z,4.67
2022-11-20T04:01:45.440Z,5.82
2022-11-20T04:04:15.864Z,3.57
2022-11-20T04:06:43.183Z,3.48
2022-11-20T04:09:10.824Z,3.41
2022-11-20T04:11:40.832Z,4.64
2022-11-20T04:14:14.530Z,5.56
2022-11-20T04:16:42.458Z,5.78
2022-11-20T04:19:14.635Z,5.79
2022-11-20T04:21:43.215Z,5.72
2022-11-20T04:24:11.528Z,5.60
2022-11-20T04:26:39.184Z,5.40
2022-11-20T04:29:06.841Z,5.74
2022-11-20T04:31:35.540Z,5.72
2022-11-20T04:34:04.667Z,5.68
2022-11-20T04:36:32.939Z,5.59
2022-11-20T04:39:02.510Z,5.86
2022-11-20T04:41:32.627Z,5.75
2022-11-20T04:44:04.140Z,5.77
2022-11-20T04:46:34.636Z,5.14
2022-11-20T04:49:02.698Z,4.13
2022-11-20T04:51:30.135Z,4.03
2022-11-20T04:53:57.590Z,4.26
2022-11-20T04:56:25.303Z,3.60
2022-11-20T04:58:52.619Z,4.05
2022-11-20T05:01:22.124Z,4.05
2022-11-20T05:03:50.304Z,3.51
2022-11-20T05:09:04.740Z,3.92
2022-11-20T05:11:32.746Z,3.54
2022-11-20T05:14:00.931Z,3.57
2022-11-20T05:16:28.605Z,4.98
2022-11-20T05:18:56.247Z,5.70
2022-11-20T05:21:23.841Z,5.85
2022-11-20T05:23:51.413Z,5.18
2022-11-20T05:26:22.266Z,4.22
2022-11-20T05:28:50.279Z,5.57
2022-11-20T05:31:27.086Z,5.67
2022-11-20T05:33:56.850Z,5.87
2022-11-20T05:36:24.490Z,6.08
2022-11-20T05:38:55.516Z,6.15
2022-11-20T05:41:26.073Z,6.31
2022-11-20T05:43:53.464Z,6.27
2022-11-20T05:46:27.722Z,6.11
2022-11-20T05:48:57.013Z,6.08
2022-11-20T05:51:24.997Z,5.51
2022-11-20T05:53:52.315Z,5.33
2022-11-20T05:56:21.366Z,5.09
2022-11-20T05:58:48.977Z,4.32
2022-11-20T06:01:19.983Z,4.17
2022-11-20T06:03:48.735Z,5.24
2022-11-20T06:06:16.682Z,4.42
2022-11-20T06:08:44.611Z,4.86
2022-11-20T06:11:14.042Z,5.36
2022-11-20T06:13:43.013Z,3.44
2022-11-20T06:16:11.649Z,3.22
2022-11-20T06:18:39.682Z,2.90
2022-11-20T06:21:10.271Z,3.86
2022-11-20T06:23:37.892Z,2.92
2022-11-20T06:26:16.292Z,3.09
2022-11-20T06:28:43.708Z,3.13
2022-11-20T06:31:14.420Z,3.31
2022-11-20T06:33:42.908Z,3.09
2022-11-20T06:36:11.978Z,3.03
2022-11-20T06:38:39.928Z,3.46
2022-11-20T06:41:09.697Z,2.72
2022-11-20T06:43:37.286Z,2.95
2022-11-20T06:46:04.714Z,3.22
2022-11-20T06:48:32.143Z,2.63
2022-11-20T06:50:59.821Z,2.81
2022-11-20T06:53:27.202Z,3.44
2022-11-20T06:55:57.167Z,3.40
2022-11-20T06:58:27.659Z,3.47
2022-11-20T07:00:58.663Z,3.49
2022-11-20T07:03:26.328Z,3.09
2022-11-20T07:05:56.481Z,3.45
2022-11-20T07:08:24.007Z,3.98
2022-11-20T07:10:51.661Z,3.31
2022-11-20T07:13:18.998Z,3.04
2022-11-20T07:15:46.310Z,2.94
2022-11-20T07:18:13.915Z,3.04
2022-11-20T07:20:41.467Z,3.07
2022-11-20T07:23:08.914Z,3.46
2022-11-20T07:25:36.837Z,4.05
2022-11-20T07:28:04.741Z,3.14
2022-11-20T07:30:32.112Z,4.28
2022-11-20T07:32:59.712Z,4.05
2022-11-20T07:35:27.127Z,4.56
2022-11-20T07:37:54.513Z,4.77
2022-11-20T07:40:22.168Z,4.81
2022-11-20T07:42:53.447Z,4.82
2022-11-20T07:45:22.091Z,4.24
2022-11-20T07:47:49.747Z,4.65
2022-11-20T07:50:17.625Z,4.45
2022-11-20T07:52:45.155Z,4.91
2022-11-20T07:55:12.979Z,4.50
2022-11-20T07:57:40.401Z,4.73
2022-11-20T08:00:10.316Z,5.30
2022-11-20T08:02:40.463Z,5.02
2022-11-20T08:05:09.418Z,4.88
2022-11-20T08:07:41.104Z,4.58
2022-11-20T08:10:11.020Z,5.22
2022-11-20T08:13:04.198Z,4.41
2022-11-20T08:15:32.886Z,5.38
2022-11-20T08:21:05.067Z,4.91
2022-11-20T08:23:32.585Z,5.76
2022-11-20T08:25:59.941Z,4.64
2022-11-20T08:28:27.502Z,4.24
2022-11-20T08:30:59.751Z,5.25
2022-11-20T08:33:27.067Z,4.74
2022-11-20T08:35:54.648Z,3.85
2022-11-20T08:38:23.150Z,4.69
2022-11-20T08:41:10.382Z,3.93
2022-11-20T08:43:37.984Z,4.71
2022-11-20T08:46:05.419Z,4.22
2022-11-20T08:48:32.727Z,4.58
2022-11-20T08:51:00.544Z,4.44
2022-11-20T08:53:28.458Z,4.12
2022-11-20T08:55:57.832Z,4.09
2022-11-20T08:58:26.117Z,4.08
2022-11-20T09:00:54.102Z,4.18
2022-11-20T09:03:21.589Z,4.35
2022-11-20T09:05:49.235Z,4.67
2022-11-20T09:08:16.598Z,4.53
2022-11-20T09:10:43.977Z,4.63
2022-11-20T09:13:11.600Z,5.85
2022-11-20T09:15:38.924Z,5.59
2022-11-20T09:18:06.210Z,5.24
2022-11-20T09:20:33.908Z,5.44
2022-11-20T09:23:01.340Z,4.73
2022-11-20T09:25:28.727Z,5.22
2022-11-20T09:27:59.839Z,4.50
2022-11-20T09:30:28.374Z,4.42
2022-11-20T09:32:56.340Z,4.97
2022-11-20T09:35:23.832Z,5.12
2022-11-20T09:37:51.464Z,5.19
2022-11-20T09:40:28.043Z,5.34
2022-11-20T09:43:08.358Z,5.17
2022-11-20T09:45:59.413Z,4.76
2022-11-20T09:48:48.565Z,3.86
2022-11-20T09:51:43.858Z,4.31
2022-11-20T09:54:19.460Z,4.81
2022-11-20T09:57:00.787Z,5.28
2022-11-20T09:59:41.026Z,5.39
2022-11-20T10:02:17.805Z,4.38
2022-11-20T10:04:54.268Z,5.20
2022-11-20T10:07:33.315Z,5.72
2022-11-20T10:10:01.461Z,6.10
2022-11-20T10:12:56.861Z,5.58
2022-11-20T10:16:20.066Z,5.53
2022-11-20T10:18:53.758Z,4.90
2022-11-20T10:21:46.068Z,5.39
2022-11-20T10:24:38.055Z,5.59
2022-11-20T10:27:19.970Z,6.64
2022-11-20T10:29:50.360Z,5.86
2022-11-20T10:32:21.482Z,5.54
2022-11-20T10:34:55.149Z,5.89
2022-11-20T10:37:27.365Z,6.30
2022-11-20T10:40:18.622Z,5.31
2022-11-20T10:42:52.132Z,6.20
2022-11-20T10:45:25.333Z,6.47
2022-11-20T10:47:59.861Z,5.63
2022-11-20T10:50:27.802Z,5.71
2022-11-20T10:53:24.880Z,5.25
2022-11-20T10:55:57.488Z,6.25
2022-11-20T10:58:40.365Z,5.94
2022-11-20T11:01:16.807Z,5.87
2022-11-20T11:03:45.008Z,6.52
2022-11-20T11:06:31.217Z,6.56
2022-11-20T11:09:04.332Z,6.25
2022-11-20T11:11:33.892Z,6.95
2022-11-20T11:14:11.864Z,5.69
2022-11-20T11:16:53.685Z,6.04
2022-11-20T11:19:21.865Z,6.12
2022-11-20T11:21:55.634Z,5.89
2022-11-20T11:24:44.442Z,6.89
2022-11-20T11:27:17.264Z,6.55
2022-11-20T11:29:46.542Z,6.09
2022-11-20T11:32:20.002Z,6.99
2022-11-20T11:35:03.773Z,6.53
2022-11-20T11:37:36.810Z,7.07
2022-11-20T11:42:57.801Z,7.27
2022-11-20T11:45:25.717Z,7.49
2022-11-20T11:47:54.319Z,7.16
2022-11-20T11:50:27.066Z,6.28
2022-11-20T11:53:06.588Z,7.62
2022-11-20T11:55:41.170Z,7.37
2022-11-20T11:58:21.428Z,7.08
2022-11-20T12:00:57.088Z,7.42
2022-11-20T12:03:37.854Z,7.25
2022-11-20T12:06:14.610Z,6.96
2022-11-20T12:08:53.695Z,7.05
2022-11-20T12:11:32.508Z,7.36
2022-11-20T12:14:20.791Z,6.92
2022-11-20T12:16:48.158Z,7.58
2022-11-20T12:19:16.188Z,6.28
2022-11-20T12:22:01.391Z,6.30
2022-11-20T12:24:59.840Z,7.50
2022-11-20T12:27:48.384Z,7.81
2022-11-20T12:30:17.836Z,7.54
2022-11-20T12:33:13.870Z,7.46
2022-11-20T12:36:08.794Z,7.67
2022-11-20T12:38:46.884Z,7.43
2022-11-20T12:42:03.557Z,7.54
2022-11-20T12:45:02.794Z,6.99
2022-11-20T12:48:02.441Z,7.06
2022-11-20T12:50:47.583Z,7.03
2022-11-20T12:53:34.568Z,7.34
2022-11-20T12:56:34.218Z,7.39
2022-11-20T12:59:19.624Z,7.29
2022-11-20T13:01:55.939Z,7.20
2022-11-20T13:04:46.538Z,7.42
2022-11-20T13:07:16.177Z,7.63
2022-11-20T13:09:50.187Z,7.80
2022-11-20T13:12:37.809Z,7.86
2022-11-20T13:15:08.132Z,7.99
2022-11-20T13:17:41.880Z,7.91
2022-11-20T13:20:20.046Z,7.63
2022-11-20T13:22:49.258Z,7.95
2022-11-20T13:25:25.230Z,7.66
2022-11-20T13:27:53.407Z,7.14
2022-11-20T13:30:25.730Z,7.71
2022-11-20T13:32:58.000Z,7.83
2022-11-20T13:35:34.449Z,7.95
2022-11-20T13:38:03.585Z,8.23
2022-11-20T13:40:31.647Z,7.94
2022-11-20T13:43:10.169Z,7.60
2022-11-20T13:45:38.453Z,7.73
2022-11-20T13:48:22.366Z,7.16
2022-11-20T13:51:03.659Z,7.20
2022-11-20T13:53:54.010Z,7.38
2022-11-20T13:56:49.008Z,7.36
2022-11-20T13:59:34.023Z,7.70
2022-11-20T14:02:02.748Z,7.36
2022-11-20T14:04:34.867Z,7.67
2022-11-20T14:07:02.822Z,7.86
2022-11-20T14:09:33.059Z,7.72
2022-11-20T14:12:01.318Z,7.64
2022-11-20T14:14:30.649Z,7.42
2022-11-20T14:17:08.562Z,6.80
2022-11-20T14:19:38.264Z,7.02
2022-11-20T14:22:27.757Z,6.18
2022-11-20T14:25:06.417Z,6.14
2022-11-20T14:27:40.368Z,5.71
2022-11-20T14:30:19.759Z,5.83
2022-11-20T14:32:48.444Z,5.88
2022-11-20T14:35:23.265Z,6.63
2022-11-20T14:37:51.555Z,7.15
2022-11-20T14:40:38.111Z,6.57
2022-11-20T14:43:27.448Z,6.07
2022-11-20T14:46:05.394Z,5.79
2022-11-20T14:48:40.554Z,5.92
2022-11-20T14:51:11.614Z,5.67
2022-11-20T14:53:40.755Z,5.70
2022-11-20T14:56:09.674Z,5.58
2022-11-20T14:58:37.520Z,5.59
2022-11-20T15:01:08.596Z,6.40
2022-11-20T15:03:39.085Z,5.77
2022-11-20T15:06:09.312Z,5.87
2022-11-20T15:08:37.518Z,5.93
2022-11-20T15:11:19.407Z,5.28
2022-11-20T15:13:48.882Z,5.51
2022-11-20T15:16:22.038Z,5.15
2022-11-20T15:18:49.943Z,5.37
2022-11-20T15:21:19.786Z,5.02
2022-11-20T15:23:47.341Z,5.83
2022-11-20T15:26:25.621Z,5.57
2022-11-20T15:28:53.527Z,5.13
2022-11-20T15:31:24.016Z,5.31
2022-11-20T15:33:53.035Z,6.29
2022-11-20T15:36:21.267Z,5.56
2022-11-20T15:38:49.960Z,5.63
2022-11-20T15:41:17.835Z,5.27
2022-11-20T15:43:46.223Z,5.84
2022-11-20T15:46:18.246Z,5.80
2022-11-20T15:48:48.759Z,6.43
2022-11-20T15:51:35.900Z,6.77
2022-11-20T15:54:12.499Z,6.33
2022-11-20T15:56:40.338Z,5.76
2022-11-20T15:59:08.579Z,5.65
2022-11-20T16:01:37.758Z,5.59
2022-11-20T16:04:09.369Z,5.48
2022-11-20T16:06:37.159Z,5.53
2022-11-20T16:09:05.216Z,5.15
2022-11-20T16:11:33.654Z,5.08
2022-11-20T16:14:23.464Z,5.01
2022-11-20T16:16:52.476Z,4.95
2022-11-20T16:19:20.568Z,4.83
2022-11-20T16:21:48.550Z,5.05
2022-11-20T16:24:17.334Z,5.26
2022-11-20T16:26:45.296Z,4.89
2022-11-20T16:29:13.368Z,4.92
2022-11-20T16:31:41.594Z,4.70
2022-11-20T16:34:12.274Z,4.65
2022-11-20T16:36:41.750Z,4.61
2022-11-20T16:39:10.626Z,4.27
2022-11-20T16:41:38.108Z,4.13
2022-11-20T16:44:10.726Z,4.24
2022-11-20T16:46:44.124Z,4.03
2022-11-20T16:49:15.594Z,4.21
2022-11-20T16:51:43.918Z,4.13
2022-11-20T16:54:19.424Z,4.30
2022-11-20T16:56:49.374Z,4.56
2022-11-20T16:59:17.502Z,4.37
2022-11-20T17:01:45.537Z,4.34
2022-11-20T17:04:14.961Z,4.48
2022-11-20T17:06:48.169Z,4.62
2022-11-20T17:09:16.410Z,4.49
2022-11-20T17:11:43.868Z,4.45
2022-11-20T17:14:13.403Z,4.82
2022-11-20T17:16:41.997Z,4.89
2022-11-20T17:19:11.842Z,5.07
2022-11-20T17:21:40.098Z,4.83
2022-11-20T17:24:11.257Z,5.34
2022-11-20T17:26:41.216Z,5.70
2022-11-20T17:29:15.510Z,6.09
2022-11-20T17:31:43.950Z,5.71
2022-11-20T17:34:13.673Z,5.80
2022-11-20T17:36:45.786Z,5.86
2022-11-20T17:39:15.470Z,5.92
2022-11-20T17:41:43.481Z,5.53
2022-11-20T17:44:12.450Z,5.97
2022-11-20T17:46:41.095Z,6.93
2022-11-20T17:49:09.707Z,7.14
2022-11-20T17:51:37.702Z,7.09
2022-11-20T17:54:08.218Z,6.76
2022-11-20T17:56:54.971Z,6.47
2022-11-20T17:59:23.159Z,6.06
2022-11-20T18:01:50.742Z,4.29
2022-11-20T18:04:18.957Z,3.70
2022-11-20T18:06:46.965Z,3.70
2022-11-20T18:09:14.930Z,3.11
2022-11-20T18:11:43.618Z,3.13
2022-11-20T18:14:49.904Z,3.17
2022-11-20T18:17:18.922Z,3.29
2022-11-20T18:20:07.194Z,3.34
2022-11-20T18:22:38.563Z,3.15
2022-11-20T18:25:06.772Z,3.41
2022-11-20T18:27:34.961Z,3.51
2022-11-20T18:30:03.180Z,3.55
2022-11-20T18:32:31.585Z,4.76
2022-11-20T18:34:59.660Z,5.48
2022-11-20T18:37:29.030Z,5.60
2022-11-20T18:39:57.517Z,5.31
2022-11-20T18:42:44.142Z,4.95
2022-11-20T18:45:12.468Z,4.78
2022-11-20T18:47:40.182Z,5.22
2022-11-20T18:50:09.548Z,5.66
2022-11-20T18:52:44.937Z,5.60
2022-11-20T18:55:14.807Z,5.28
2022-11-20T18:57:43.503Z,5.33
2022-11-20T19:00:12.157Z,5.50
2022-11-20T19:02:42.763Z,5.91
2022-11-20T19:05:13.539Z,5.80
2022-11-20T19:07:42.289Z,5.88
2022-11-20T19:10:11.254Z,5.79
2022-11-20T19:12:39.690Z,5.11
2022-11-20T19:15:08.201Z,4.76
2022-11-20T19:17:37.453Z,3.98
2022-11-20T19:20:07.075Z,3.84
2022-11-20T19:22:38.271Z,3.53
2022-11-20T19:25:06.994Z,3.22
2022-11-20T19:27:35.048Z,3.65
2022-11-20T19:30:03.928Z,4.03
2022-11-20T19:32:32.957Z,4.58
2022-11-20T19:35:02.014Z,5.23
2022-11-20T19:37:33.163Z,5.68
2022-11-20T19:40:04.416Z,6.14
2022-11-20T19:42:32.751Z,6.18
2022-11-20T19:45:04.016Z,6.03
2022-11-20T19:48:00.601Z,4.81
2022-11-20T19:50:22.246Z,3.96
2022-11-20T19:52:53.145Z,5.17
2022-11-20T19:55:25.342Z,4.77
2022-11-20T19:57:53.849Z,4.01
2022-11-20T20:00:29.420Z,3.48
2022-11-20T20:03:01.311Z,2.83
2022-11-20T20:05:29.161Z,2.99
2022-11-20T20:07:57.939Z,2.62
2022-11-20T20:10:26.285Z,2.89
2022-11-20T20:12:55.313Z,3.77
2022-11-20T20:15:23.138Z,4.44
2022-11-20T20:17:54.428Z,4.79
2022-11-20T20:20:22.856Z,3.60
2022-11-20T20:22:51.994Z,2.41
2022-11-20T20:25:20.045Z,2.71
2022-11-20T20:27:48.094Z,2.25
2022-11-20T20:30:25.428Z,2.55
2022-11-20T20:32:56.290Z,2.42
2022-11-20T20:35:30.059Z,2.29
2022-11-20T20:37:59.029Z,2.49
2022-11-20T20:40:27.445Z,2.64
2022-11-20T20:42:55.403Z,2.33
2022-11-20T20:45:23.982Z,2.31
2022-11-20T20:47:52.187Z,2.13
2022-11-20T20:50:20.256Z,2.96
2022-11-20T20:52:48.823Z,2.58
2022-11-20T20:55:17.253Z,2.56
2022-11-20T20:57:44.952Z,2.75
2022-11-20T21:00:13.324Z,2.64
2022-11-20T21:02:42.351Z,2.66
2022-11-20T21:05:10.481Z,2.94
2022-11-20T21:07:58.293Z,2.95
2022-11-20T21:10:27.609Z,2.74
2022-11-20T21:12:55.133Z,2.60
2022-11-20T21:15:23.240Z,2.75
2022-11-20T21:17:51.175Z,2.56
2022-11-20T21:20:37.403Z,2.66
2022-11-20T21:23:09.489Z,3.45
2022-11-20T21:25:38.446Z,4.56
2022-11-20T21:28:07.332Z,4.50
2022-11-20T21:30:35.082Z,4.57
2022-11-20T21:33:02.693Z,4.68
2022-11-20T21:35:30.538Z,4.64
2022-11-20T21:37:58.036Z,4.78
2022-11-20T21:40:25.888Z,4.73
2022-11-20T21:42:54.279Z,4.29
2022-11-20T21:45:22.014Z,3.80
2022-11-20T21:47:50.380Z,4.02
2022-11-20T21:50:18.697Z,3.82
2022-11-20T21:52:46.085Z,4.21
2022-11-20T21:55:13.450Z,3.83
2022-11-20T21:57:41.058Z,3.46
2022-11-20T22:00:09.150Z,3.52
2022-11-20T22:02:40.282Z,3.82
2022-11-20T22:05:08.367Z,3.54
2022-11-20T22:07:35.898Z,3.19
2022-11-20T22:10:03.873Z,3.05
2022-11-20T22:12:31.538Z,3.06
2022-11-20T22:14:58.914Z,2.79
2022-11-20T22:17:44.737Z,2.38
2022-11-20T22:20:12.365Z,2.42
2022-11-20T22:22:40.151Z,2.34
2022-11-20T22:25:07.867Z,2.81
2022-11-20T22:27:35.565Z,2.55
2022-11-20T22:30:02.894Z,2.90
2022-11-20T22:32:30.272Z,2.91
2022-11-20T22:34:57.844Z,2.31
2022-11-20T22:37:25.173Z,2.09
2022-11-20T22:39:52.890Z,1.70
2022-11-20T22:42:20.524Z,1.65
2022-11-20T22:44:47.842Z,1.67
2022-11-20T22:47:15.183Z,1.63
2022-11-20T22:49:42.848Z,1.44
2022-11-20T22:52:10.160Z,1.19
2022-11-20T22:54:37.436Z,1.11
2022-11-20T22:57:05.007Z,1.00
2022-11-20T22:59:32.608Z,1.06
2022-11-20T23:02:00.068Z,1.13
2022-11-20T23:04:27.658Z,1.21
2022-11-20T23:06:54.998Z,1.26
2022-11-20T23:09:22.326Z,1.18
2022-11-20T23:11:49.912Z,1.29
2022-11-20T23:14:17.214Z,2.09
2022-11-20T23:16:44.517Z,1.92
2022-11-20T23:19:14.130Z,1.68
2022-11-20T23:21:42.855Z,1.84
2022-11-20T23:24:10.694Z,1.77
2022-11-20T23:26:40.149Z,1.12
2022-11-20T23:29:08.160Z,1.43
2022-11-20T23:31:36.065Z,1.64
2022-11-20T23:34:04.240Z,1.63
2022-11-20T23:36:31.923Z,1.55
2022-11-20T23:38:59.260Z,1.17
2022-11-20T23:41:26.872Z,1.28
2022-11-20T23:46:39.311Z,0.97
2022-11-20T23:49:06.534Z,0.84
2022-11-20T23:51:33.856Z,0.96
2022-11-20T23:54:04.755Z,0.75
2022-11-20T23:56:32.545Z,1.05
2022-11-20T23:58:59.947Z,1.20
